East Brunswick, NJ - U.S.A.

40° 26' 15"N, 74° 23' 24"W, Elevation 138 ft.

Saturday, October 25, 2014
2:14:00 AM (Eastern)

298th day of the year

Updated and refreshed every 2 minutes. Weather computer in use: Davis Vantage PRO2 Plus


Current Weather:

Current Today's Highs and Lows
Temperature 51.6°F (10.9°C) ↑ 53.6° 12:00 AM
51.3° 12:57 AM
Dew Point 38.4°F (3.5°C) ↓ 41.5° 12:02 AM
38.4° 2:01 AM
Humidity 60% ↓ 65% 12:42 AM
60% 2:01 AM
Wind Gust NW 11 mph NW 11 2:09 AM
NNW 0 12:00 AM
Wind Speed NW 5 mph ↑
Light breeze (2)
NW 6 2:09 AM
NNW 0 12:00 AM
Precipitation 0.00" (0.00 mm) 1
Last 24 hours 0.00"
Instantaneous rate 0.00"/hr
Storm total 0.00"
0.00"2 12:00 AM
0.00"2 12:00 AM
Barometer 29.856" (1011.1 mb)
Rising
29.856" 1:45 AM
29.833" 12:00 AM
Wind Chill Gust 52°F (11°C) 54° 12:00 AM
48° 2:09 AM
Wind Chill Avg 50°F (10°C) 54° 12:00 AM
50° 2:09 AM
Heat Index 51°F (10.6°C) 53° 12:00 AM
51° 12:42 AM
Sunshine 0 W/m2
Sunshine minutes 0
0 12:00 AM
0 12:00 AM
UV Index  0.0 0.0 12:00 AM
0.0 12:00 AM
1. Daily total rainfall.
2. Maximum and minimum rainfall are the instantaneous rainfall rates.

'KEBR' METAR REPORT:

METAR KEBR 250614Z AUTO 32004KT 11/04 A2986 RMK AO1 SLP111 T01090035 

Yesterday's Weather and More...

Webcam
EBWeather Image

Video - Last 3 Hours

Video - Yesterday

Video - Last 3 Days

NJ Region Surface Map
NJ Sfc Map

Weather Data from East Brunswick, NJ

Data generated by WxSolution Version 1.8.7, Build 2013.11.03.